Time;durP1;ratioP1;P1;durP2;ratioP2;P2;SDS_P1;SDS_P2;PMS_P1;PMS_P2;Temp;Humidity;BMP_temperature;BMP_pressure;BME280_temperature;BME280_humidity;BME280_pressure;Samples;Min_cycle;Max_cycle;Signal;HPM_P1;HPM_P2
2021/10/21 00:02:01;;;;;;;14.65;13.32;;;;;;;15.93;56.07;99032.03;5011186;27;96760;-87
2021/10/21 00:04:28;;;;;;;16.23;14.50;;;;;;;15.91;56.29;99028.69;5002277;28;101254;-88
2021/10/21 00:06:54;;;;;;;14.48;12.98;;;;;;;15.83;56.50;99025.75;5018547;27;98376;-87
2021/10/21 00:09:19;;;;;;;13.82;12.73;;;;;;;15.87;56.40;99036.94;5002582;28;99635;-88
2021/10/21 00:11:45;;;;;;;13.40;12.35;;;;;;;15.87;56.26;99039.59;5002716;27;97042;-87
2021/10/21 00:14:10;;;;;;;15.95;13.30;;;;;;;15.81;56.30;99025.88;5018744;28;99369;-87
2021/10/21 00:16:36;;;;;;;14.60;12.52;;;;;;;15.84;56.30;99022.16;4985262;27;101061;-88
2021/10/21 00:19:02;;;;;;;13.63;12.15;;;;;;;15.86;56.13;99017.59;4998701;28;96676;-88
2021/10/21 00:21:27;;;;;;;14.80;13.27;;;;;;;15.93;55.97;99010.03;5046706;27;96814;-87
2021/10/21 00:23:53;;;;;;;14.23;12.75;;;;;;;15.92;56.05;99003.06;4998487;28;98452;-88
2021/10/21 00:26:19;;;;;;;13.90;12.70;;;;;;;15.91;56.43;98991.63;5000015;28;100090;-87
2021/10/21 00:28:44;;;;;;;13.85;12.65;;;;;;;15.86;56.07;98988.50;5001518;28;96839;-88
2021/10/21 00:31:10;;;;;;;14.68;13.23;;;;;;;15.89;55.85;98972.38;5036436;27;96923;-85
2021/10/21 00:33:35;;;;;;;17.80;12.93;;;;;;;15.86;55.80;98972.59;5018584;28;98005;-88
2021/10/21 00:36:01;;;;;;;14.68;12.98;;;;;;;15.89;55.69;98976.81;4998278;28;101373;-88
2021/10/21 00:38:26;;;;;;;14.55;13.20;;;;;;;15.88;55.67;98969.81;4998596;28;96629;-87
2021/10/21 00:40:52;;;;;;;14.75;13.18;;;;;;;15.91;55.72;98967.81;4994628;28;96761;-88
2021/10/21 00:43:18;;;;;;;14.15;12.80;;;;;;;15.92;55.53;98958.06;4984600;28;101183;-87
2021/10/21 00:45:43;;;;;;;15.23;13.73;;;;;;;15.87;55.68;98954.94;5017831;28;99978;-87
2021/10/21 00:48:09;;;;;;;14.20;13.00;;;;;;;15.85;55.43;98955.03;5018920;28;97681;-88
2021/10/21 00:50:36;;;;;;;16.50;13.88;;;;;;;15.89;55.79;98953.00;5037371;27;96831;-87
2021/10/21 00:53:02;;;;;;;14.25;13.07;;;;;;;15.80;55.72;98944.81;5011543;28;101279;-87
2021/10/21 00:55:28;;;;;;;14.15;12.95;;;;;;;15.92;55.21;98953.59;5013370;28;98371;-87
2021/10/21 00:57:54;;;;;;;13.65;12.50;;;;;;;15.93;55.36;98955.28;4998055;28;97098;-88
2021/10/21 01:00:20;;;;;;;15.23;12.80;;;;;;;15.84;55.54;98937.47;5002053;28;96879;-86
2021/10/21 01:02:45;;;;;;;17.08;12.68;;;;;;;15.89;55.63;98951.19;4993679;28;101869;-87
2021/10/21 01:05:12;;;;;;;13.63;12.32;;;;;;;15.85;55.71;98957.69;4977729;28;100216;-87
2021/10/21 01:07:39;;;;;;;15.32;13.23;;;;;;;15.95;55.55;98948.06;5013795;28;98129;-88
2021/10/21 01:10:07;;;;;;;18.02;14.70;;;;;;;15.90;55.35;98952.03;5012389;28;97197;-87
2021/10/21 01:12:32;;;;;;;14.65;13.35;;;;;;;15.88;55.57;98969.81;5001235;28;97541;-87
2021/10/21 01:15:25;;;;;;;13.48;12.32;;;;;;;15.90;55.64;98965.28;5004827;27;101511;-86
2021/10/21 01:17:51;;;;;;;14.98;13.20;;;;;;;16.03;55.43;98968.66;4984485;28;96715;-87
2021/10/21 01:20:18;;;;;;;15.98;12.52;;;;;;;15.92;55.62;98963.34;4998897;28;96905;-87
2021/10/21 01:22:43;;;;;;;14.98;12.95;;;;;;;15.96;55.47;98962.16;4997792;28;98535;-87
2021/10/21 01:25:09;;;;;;;14.52;12.77;;;;;;;15.87;55.64;98939.88;5018357;28;101343;-87
2021/10/21 01:27:35;;;;;;;17.27;13.07;;;;;;;15.95;55.38;98939.31;5001231;28;98059;-87
2021/10/21 01:30:00;;;;;;;13.38;12.00;;;;;;;15.99;55.63;98935.44;4991685;27;96846;-88
2021/10/21 01:32:28;;;;;;;14.45;13.15;;;;;;;16.05;55.39;98929.66;5014962;28;98012;-87
2021/10/21 01:34:53;;;;;;;14.73;12.68;;;;;;;15.97;55.40;98926.78;5000816;27;97418;-87
2021/10/21 01:37:19;;;;;;;14.35;12.63;;;;;;;15.98;55.55;98923.19;4997206;28;96827;-87
2021/10/21 01:39:45;;;;;;;13.80;12.48;;;;;;;15.98;55.47;98900.19;4997114;27;97347;-87
2021/10/21 01:42:11;;;;;;;14.35;13.15;;;;;;;15.99;55.37;98898.38;5018290;28;98185;-87
2021/10/21 01:44:36;;;;;;;14.77;13.20;;;;;;;15.96;55.44;98896.81;4984083;27;101459;-88
2021/10/21 01:47:02;;;;;;;19.58;13.68;;;;;;;15.93;55.66;98894.41;4983951;28;96846;-88
2021/10/21 01:49:28;;;;;;;14.02;12.68;;;;;;;15.95;55.56;98891.66;5007592;28;97319;-88
2021/10/21 01:51:53;;;;;;;13.32;12.02;;;;;;;15.95;55.44;98875.78;4997062;28;100217;-89
2021/10/21 01:54:19;;;;;;;15.52;13.90;;;;;;;16.06;55.33;98855.44;5003860;28;97074;-87
2021/10/21 01:56:45;;;;;;;14.00;12.55;;;;;;;16.06;55.07;98851.97;4983690;28;97138;-86
2021/10/21 01:59:10;;;;;;;14.20;12.20;;;;;;;16.04;55.40;98861.81;5017637;27;96849;-87
2021/10/21 02:01:36;;;;;;;13.60;12.25;;;;;;;15.98;55.55;98862.31;5006818;28;98342;-90
2021/10/21 02:04:02;;;;;;;14.18;12.98;;;;;;;16.03;55.53;98860.16;4996630;28;97885;-87
2021/10/21 02:06:27;;;;;;;13.45;12.35;;;;;;;15.92;55.78;98876.88;5009317;28;97142;-87
2021/10/21 02:08:53;;;;;;;13.80;12.40;;;;;;;15.93;55.72;98862.66;4985985;28;96815;-87
2021/10/21 02:11:19;;;;;;;15.43;13.73;;;;;;;15.93;55.55;98867.13;5000902;28;97373;-87
2021/10/21 02:13:44;;;;;;;12.43;10.25;;;;;;;15.92;55.61;98879.50;5002666;27;100247;-87
2021/10/21 02:16:10;;;;;;;14.65;12.93;;;;;;;15.92;55.72;98878.69;5001070;28;97125;-86
2021/10/21 02:18:35;;;;;;;14.10;12.70;;;;;;;15.91;55.60;98890.22;4983761;27;97156;-87
2021/10/21 02:21:02;;;;;;;12.95;11.85;;;;;;;15.94;55.58;98880.25;5006724;28;100676;-87
2021/10/21 02:23:27;;;;;;;13.27;11.93;;;;;;;16.05;55.25;98860.84;5000110;27;101743;-87
2021/10/21 02:25:53;;;;;;;14.43;12.25;;;;;;;16.07;54.82;98853.63;4996973;28;97031;-87
2021/10/21 02:28:18;;;;;;;13.98;12.65;;;;;;;16.06;54.91;98849.31;4997955;28;96758;-87
2021/10/21 02:30:44;;;;;;;14.68;13.20;;;;;;;16.07;54.93;98838.59;5010177;28;98422;-87
2021/10/21 02:33:10;;;;;;;14.63;12.48;;;;;;;16.08;54.92;98836.78;4999770;27;98239;-86
2021/10/21 02:35:35;;;;;;;15.63;12.90;;;;;;;16.09;54.82;98827.91;4998594;28;96678;-88
2021/10/21 02:38:01;;;;;;;16.42;13.32;;;;;;;16.15;54.82;98818.63;5028773;27;96950;-87
2021/10/21 02:40:26;;;;;;;13.55;12.18;;;;;;;16.09;54.82;98801.44;5020181;27;101385;-87
2021/10/21 02:42:52;;;;;;;19.50;13.77;;;;;;;16.07;54.82;98803.34;5035956;27;101563;-87
2021/10/21 02:45:18;;;;;;;17.17;12.23;;;;;;;16.04;55.07;98806.25;5003803;27;97165;-87
2021/10/21 02:47:46;;;;;;;13.05;11.88;;;;;;;16.03;54.48;98786.88;5019282;27;96976;-87
2021/10/21 02:50:12;;;;;;;12.77;11.52;;;;;;;16.01;54.90;98780.88;5016575;28;98444;-87
2021/10/21 02:52:37;;;;;;;13.75;12.18;;;;;;;16.01;54.84;98786.16;5016433;27;101574;-88
2021/10/21 02:55:04;;;;;;;13.18;12.02;;;;;;;16.01;55.13;98788.81;5020569;28;96829;-87
2021/10/21 02:57:29;;;;;;;14.43;13.15;;;;;;;15.98;55.47;98789.06;5017776;27;97223;-87
2021/10/21 02:59:55;;;;;;;13.65;12.48;;;;;;;15.96;55.19;98790.13;5026766;28;101335;-87
2021/10/21 03:02:20;;;;;;;17.02;14.07;;;;;;;15.95;55.19;98780.53;5016342;27;97256;-87
2021/10/21 03:04:46;;;;;;;13.93;12.63;;;;;;;16.02;55.31;98777.25;5017612;27;97236;-87
2021/10/21 03:07:12;;;;;;;14.07;12.77;;;;;;;15.97;55.22;98762.69;5020285;27;98142;-86
2021/10/21 03:09:37;;;;;;;16.80;13.35;;;;;;;16.00;55.07;98767.78;5016475;28;101214;-88
2021/10/21 03:12:03;;;;;;;14.32;12.82;;;;;;;16.00;55.24;98763.31;5019869;27;98227;-87
2021/10/21 03:14:28;;;;;;;13.35;12.00;;;;;;;15.98;55.38;98754.66;5054770;27;96635;-87
2021/10/21 03:16:54;;;;;;;13.95;12.65;;;;;;;15.99;55.02;98739.59;5036333;27;96721;-87
2021/10/21 03:19:20;;;;;;;16.27;13.15;;;;;;;15.96;55.12;98740.69;5000715;27;100294;-87
2021/10/21 03:21:45;;;;;;;14.30;13.00;;;;;;;16.04;55.14;98734.78;5018366;27;100984;-87
2021/10/21 03:24:11;;;;;;;13.43;12.20;;;;;;;16.04;55.24;98727.69;5029177;27;97186;-86
2021/10/21 03:26:36;;;;;;;14.80;13.40;;;;;;;16.01;55.20;98711.22;5018350;27;98853;-87
2021/10/21 03:29:02;;;;;;;15.15;13.63;;;;;;;16.00;55.42;98706.91;5026308;27;98322;-87
2021/10/21 03:31:29;;;;;;;17.23;13.63;;;;;;;16.00;55.55;98696.31;5019212;27;101081;-87
2021/10/21 03:33:56;;;;;;;14.50;13.18;;;;;;;15.94;55.74;98687.06;5036219;27;97346;-88
2021/10/21 03:36:22;;;;;;;14.60;12.70;;;;;;;15.96;55.81;98687.75;5020200;27;96770;-86
2021/10/21 03:38:47;;;;;;;19.17;13.20;;;;;;;15.97;55.55;98684.19;5017504;28;99961;-88
2021/10/21 03:41:13;;;;;;;14.80;13.35;;;;;;;15.98;55.80;98691.13;4998786;27;100762;-87
2021/10/21 03:43:38;;;;;;;16.65;12.85;;;;;;;16.03;55.47;98685.47;5036657;27;96744;-87
2021/10/21 03:46:04;;;;;;;15.82;13.20;;;;;;;15.95;55.64;98696.69;5035841;27;96869;-87
2021/10/21 03:48:29;;;;;;;14.27;12.85;;;;;;;15.97;55.52;98688.59;5019004;27;101380;-87
2021/10/21 03:50:55;;;;;;;13.18;11.98;;;;;;;15.96;55.68;98698.34;5019084;27;97939;-87
2021/10/21 03:53:20;;;;;;;16.10;12.70;;;;;;;16.03;55.73;98704.84;5016548;28;96774;-87
2021/10/21 03:55:46;;;;;;;15.10;13.63;;;;;;;16.16;55.31;98650.88;5017892;27;96959;-87
2021/10/21 03:58:11;;;;;;;14.15;12.75;;;;;;;16.09;55.59;98686.78;5053697;27;98543;-86
2021/10/21 04:00:37;;;;;;;14.07;12.65;;;;;;;16.03;55.32;98681.03;5012128;27;100545;-87
2021/10/21 04:03:03;;;;;;;16.13;13.27;;;;;;;16.10;55.36;98689.28;5021635;27;96677;-87
2021/10/21 04:05:28;;;;;;;17.08;13.70;;;;;;;15.98;55.62;98682.38;5021714;27;97195;-87
2021/10/21 04:07:54;;;;;;;16.17;10.32;;;;;;;16.09;55.56;98706.16;5001318;27;100363;-88
2021/10/21 04:10:19;;;;;;;14.32;11.38;;;;;;;16.05;55.69;98697.59;5021857;27;100431;-87
2021/10/21 04:12:45;;;;;;;11.57;10.40;;;;;;;16.10;55.70;98710.47;5021459;27;96760;-86
2021/10/21 04:15:11;;;;;;;16.73;9.80;;;;;;;16.14;55.47;98692.50;5004356;27;96919;-86
2021/10/21 04:17:37;;;;;;;16.38;10.88;;;;;;;16.12;55.51;98694.47;5021776;27;101672;-87
2021/10/21 04:20:04;;;;;;;14.13;11.45;;;;;;;16.06;57.59;98706.41;5038792;27;97315;-88
2021/10/21 04:22:30;;;;;;;19.42;11.90;;;;;;;15.87;61.21;98720.28;5057478;27;97091;-85
2021/10/21 04:24:55;;;;;;;15.65;10.75;;;;;;;15.73;61.91;98733.78;5046707;27;96753;-86
2021/10/21 04:27:21;;;;;;;14.18;12.05;;;;;;;15.55;62.64;98726.31;5021080;27;101691;-85
2021/10/21 04:29:46;;;;;;;14.38;11.38;;;;;;;15.54;63.75;98726.44;5047472;27;98052;-85
2021/10/21 04:32:12;;;;;;;14.85;11.02;;;;;;;15.37;64.74;98722.50;5047627;27;96615;-84
2021/10/21 04:34:37;;;;;;;13.00;11.35;;;;;;;15.34;65.20;98717.47;5005199;27;96893;-85
2021/10/21 04:37:03;;;;;;;12.60;11.10;;;;;;;15.53;64.66;98701.81;5037032;27;96934;-86
2021/10/21 04:39:29;;;;;;;14.02;10.77;;;;;;;15.38;65.13;98709.13;5037486;27;101580;-86
2021/10/21 04:41:54;;;;;;;14.50;11.35;;;;;;;15.31;65.55;98701.84;5037792;27;97432;-85
2021/10/21 04:44:20;;;;;;;15.95;12.15;;;;;;;15.35;65.00;98671.53;4994115;27;97758;-86
2021/10/21 04:46:46;;;;;;;14.63;12.45;;;;;;;15.16;65.32;98672.19;5012599;27;100078;-85
2021/10/21 04:49:11;;;;;;;14.18;12.80;;;;;;;15.22;64.90;98661.13;5022845;27;98055;-86
2021/10/21 04:51:37;;;;;;;14.90;13.25;;;;;;;15.15;64.88;98659.91;5039718;27;96782;-86
2021/10/21 04:54:02;;;;;;;16.60;12.90;;;;;;;15.13;64.34;98657.41;5018135;27;97106;-86
2021/10/21 04:56:28;;;;;;;15.27;13.68;;;;;;;15.15;64.22;98647.56;5002893;27;101662;-86
2021/10/21 04:58:54;;;;;;;13.43;11.68;;;;;;;15.17;64.15;98640.31;5008408;27;101387;-86
2021/10/21 05:01:19;;;;;;;13.80;12.30;;;;;;;15.19;63.61;98636.75;5013844;27;97352;-85
2021/10/21 05:03:45;;;;;;;20.38;12.05;;;;;;;15.15;63.51;98633.47;4988598;27;97334;-86
2021/10/21 05:06:10;;;;;;;17.55;13.88;;;;;;;15.19;63.50;98627.00;5011271;27;97817;-86
2021/10/21 05:08:36;;;;;;;20.90;13.50;;;;;;;15.11;63.58;98624.13;5012127;27;101693;-86
2021/10/21 05:11:02;;;;;;;17.73;11.75;;;;;;;15.11;63.64;98630.25;5038463;27;96980;-85
2021/10/21 05:13:27;;;;;;;14.73;13.23;;;;;;;15.10;63.86;98633.03;5016202;27;97063;-84
2021/10/21 05:15:53;;;;;;;13.82;11.45;;;;;;;15.12;63.68;98639.84;5007348;27;99548;-88
2021/10/21 05:18:18;;;;;;;14.60;13.23;;;;;;;15.25;63.34;98647.66;4997529;27;100480;-95
2021/10/21 05:20:44;;;;;;;15.40;13.82;;;;;;;15.24;63.23;98635.41;5018342;27;98354;-93
2021/10/21 05:23:10;;;;;;;16.83;13.68;;;;;;;15.14;63.03;98623.88;5018963;27;97356;-93
2021/10/21 05:25:35;;;;;;;14.45;13.02;;;;;;;15.23;63.26;98633.72;5003964;27;100339;-88
2021/10/21 05:28:01;;;;;;;16.48;13.30;;;;;;;15.22;63.41;98628.56;5021612;27;101838;-88
2021/10/21 05:30:27;;;;;;;14.32;12.82;;;;;;;15.36;62.58;98637.06;5029060;27;96785;-84
2021/10/21 05:32:52;;;;;;;14.73;13.32;;;;;;;15.36;62.79;98636.22;5025910;28;96771;-86
2021/10/21 05:35:18;;;;;;;14.10;12.70;;;;;;;15.43;62.37;98626.00;5044772;27;98342;-87
2021/10/21 05:37:44;;;;;;;15.60;13.43;;;;;;;15.35;62.32;98608.09;5038399;27;98782;-86
2021/10/21 05:40:10;;;;;;;14.43;13.13;;;;;;;15.34;61.92;98619.63;5038608;27;97428;-82
2021/10/21 05:42:35;;;;;;;14.93;12.82;;;;;;;15.33;62.34;98612.66;5055184;27;96875;-83
2021/10/21 05:45:01;;;;;;;15.15;13.27;;;;;;;15.21;62.86;98625.06;5017038;27;101171;-81
2021/10/21 05:47:26;;;;;;;13.98;12.68;;;;;;;15.18;62.74;98622.66;5028941;27;101742;-80
2021/10/21 05:49:52;;;;;;;14.73;13.13;;;;;;;15.27;62.70;98607.88;5016133;28;96883;-82
2021/10/21 05:52:24;;;;;;;15.32;13.77;;;;;;;15.25;62.63;98613.28;4997172;27;96903;-81
2021/10/21 05:54:50;;;;;;;15.52;13.80;;;;;;;15.22;62.86;98610.06;5003970;28;101138;-81
2021/10/21 05:57:15;;;;;;;15.88;14.43;;;;;;;15.18;62.86;98612.09;5013643;27;101350;-82
2021/10/21 05:59:41;;;;;;;15.48;13.93;;;;;;;15.13;62.85;98614.28;5044121;27;96807;-81
2021/10/21 06:02:07;;;;;;;15.25;13.75;;;;;;;15.19;63.17;98618.25;5028116;27;97880;-82
2021/10/21 06:04:32;;;;;;;16.25;13.90;;;;;;;15.20;62.60;98614.63;5031497;27;101732;-81
2021/10/21 06:06:58;;;;;;;21.27;14.48;;;;;;;15.20;62.72;98610.16;5035003;27;98099;-82
2021/10/21 06:09:24;;;;;;;17.17;13.48;;;;;;;15.19;62.87;98612.94;5029110;27;96829;-81
2021/10/21 06:11:51;;;;;;;15.70;14.20;;;;;;;15.13;62.86;98593.97;5019718;27;96774;-82
2021/10/21 06:14:20;;;;;;;17.20;14.30;;;;;;;15.14;62.76;98594.81;5020613;27;98428;-82
2021/10/21 06:16:47;;;;;;;16.17;14.50;;;;;;;15.16;62.22;98582.31;5033803;27;98317;-82
2021/10/21 06:19:14;;;;;;;16.38;14.68;;;;;;;15.14;62.29;98594.81;5033836;27;97345;-82
2021/10/21 06:21:40;;;;;;;16.48;13.80;;;;;;;15.03;62.64;98600.94;4991623;27;97490;-84
2021/10/21 06:24:06;;;;;;;16.20;14.50;;;;;;;15.02;62.38;98606.34;5012410;28;97566;-82
2021/10/21 06:26:32;;;;;;;15.57;14.05;;;;;;;14.97;62.50;98603.22;5025368;27;98133;-83
2021/10/21 06:28:58;;;;;;;16.90;15.18;;;;;;;15.00;62.87;98611.75;5017165;27;96864;-82
2021/10/21 06:31:24;;;;;;;16.65;15.02;;;;;;;15.01;62.75;98629.31;5004205;27;96958;-82
2021/10/21 06:33:49;;;;;;;16.73;14.85;;;;;;;15.02;62.81;98630.13;5035288;27;101950;-83
2021/10/21 06:36:15;;;;;;;20.60;15.90;;;;;;;15.01;62.97;98628.44;5014841;27;97704;-83
2021/10/21 06:38:42;;;;;;;22.20;17.17;;;;;;;14.92;62.96;98630.88;5018491;27;96928;-82
2021/10/21 06:41:08;;;;;;;17.25;15.55;;;;;;;14.85;63.47;98632.28;5033423;27;97686;-82
2021/10/21 06:43:34;;;;;;;19.67;16.90;;;;;;;14.91;63.21;98649.47;5035560;27;97614;-83
2021/10/21 06:46:00;;;;;;;21.17;16.70;;;;;;;14.93;62.87;98645.75;5021400;27;97501;-83
2021/10/21 06:48:27;;;;;;;22.83;19.48;;;;;;;14.82;63.35;98643.09;5003160;28;98067;-85
2021/10/21 06:50:53;;;;;;;20.92;18.73;;;;;;;14.84;63.23;98635.91;5040770;27;97325;-84
2021/10/21 06:53:19;;;;;;;18.85;16.95;;;;;;;14.81;63.11;98619.47;5023752;27;98201;-81
2021/10/21 06:55:45;;;;;;;18.92;17.15;;;;;;;14.74;63.40;98605.88;5018903;27;97953;-82
2021/10/21 06:58:10;;;;;;;18.48;16.50;;;;;;;14.73;63.07;98577.78;5013516;28;96815;-79
2021/10/21 07:00:39;;;;;;;21.85;18.35;;;;;;;14.69;63.58;98565.81;4998983;27;96934;-83
2021/10/21 07:03:04;;;;;;;18.40;16.50;;;;;;;14.63;64.17;98582.09;5006535;27;101851;-84
2021/10/21 07:05:35;;;;;;;20.17;18.10;;;;;;;14.62;64.21;98565.44;5053449;27;97937;-84
2021/10/21 07:08:01;;;;;;;19.17;17.25;;;;;;;14.56;64.14;98559.78;5027503;27;96816;-84
2021/10/21 07:10:26;;;;;;;18.88;16.98;;;;;;;14.55;64.22;98579.25;5032374;27;96882;-83
2021/10/21 07:12:52;;;;;;;17.95;16.10;;;;;;;14.69;64.21;98594.84;5038971;27;97702;-85
2021/10/21 07:15:18;;;;;;;20.80;17.08;;;;;;;14.67;64.00;98584.41;5000650;27;100929;-76
2021/10/21 07:17:43;;;;;;;19.80;17.25;;;;;;;14.69;63.98;98584.28;5054372;27;96977;-78
2021/10/21 07:20:10;;;;;;;21.40;17.38;;;;;;;14.63;64.30;98556.56;5036188;27;98183;-78
2021/10/21 07:22:35;;;;;;;21.13;17.48;;;;;;;14.63;64.15;98566.25;5014881;28;101131;-78
2021/10/21 07:25:02;;;;;;;20.05;17.98;;;;;;;14.55;64.20;98560.75;5015809;27;97426;-78
2021/10/21 07:27:27;;;;;;;20.05;17.70;;;;;;;14.57;64.27;98567.59;5036187;27;96841;-78
2021/10/21 07:29:53;;;;;;;19.25;17.40;;;;;;;14.67;63.92;98565.06;5029539;27;97172;-78
2021/10/21 07:32:18;;;;;;;20.33;17.65;;;;;;;14.60;64.42;98559.44;5035209;27;98553;-78
2021/10/21 07:34:44;;;;;;;20.17;17.20;;;;;;;14.61;64.44;98555.00;5017844;27;98535;-78
2021/10/21 07:37:10;;;;;;;19.35;17.42;;;;;;;14.62;64.51;98546.94;5017404;27;98103;-78
2021/10/21 07:39:37;;;;;;;21.67;16.70;;;;;;;14.62;64.26;98525.81;5028490;27;96830;-78
2021/10/21 07:42:03;;;;;;;18.70;16.77;;;;;;;14.64;64.46;98517.78;5021143;27;101396;-82
2021/10/21 07:44:36;;;;;;;19.55;17.48;;;;;;;14.58;64.29;98503.28;5016892;27;101509;-85
2021/10/21 07:47:02;;;;;;;20.30;18.05;;;;;;;14.63;64.10;98516.09;5036036;27;96868;-84
2021/10/21 07:49:29;;;;;;;21.65;19.38;;;;;;;14.60;64.32;98526.91;5019534;27;97001;-85
2021/10/21 07:51:55;;;;;;;23.70;20.90;;;;;;;14.61;64.35;98523.31;5021517;27;101542;-85
2021/10/21 07:54:24;;;;;;;20.42;18.35;;;;;;;14.62;64.36;98517.91;5001497;28;101350;-85
2021/10/21 07:56:50;;;;;;;20.65;18.52;;;;;;;14.63;64.41;98524.00;5005767;27;96936;-85
2021/10/21 07:59:16;;;;;;;20.08;17.73;;;;;;;14.57;64.44;98511.31;5039782;27;96869;-85
2021/10/21 08:01:41;;;;;;;19.27;17.23;;;;;;;14.64;64.83;98520.44;5029711;27;97980;-86
2021/10/21 08:04:09;;;;;;;20.35;16.95;;;;;;;14.71;64.56;98514.53;5036611;27;98191;-85
2021/10/21 08:06:35;;;;;;;19.60;16.70;;;;;;;14.74;64.28;98496.75;5010413;27;97423;-85
2021/10/21 08:09:03;;;;;;;18.23;15.98;;;;;;;14.78;64.44;98525.47;5012610;27;97888;-85
2021/10/21 08:11:29;;;;;;;17.15;15.55;;;;;;;14.85;64.33;98531.09;5008931;27;101236;-85
2021/10/21 08:13:54;;;;;;;21.70;15.77;;;;;;;14.84;64.48;98511.75;5028542;27;98291;-84
2021/10/21 08:16:20;;;;;;;17.80;16.20;;;;;;;14.92;64.52;98503.19;4991469;27;97332;-85
2021/10/21 08:18:45;;;;;;;20.02;15.43;;;;;;;14.94;64.26;98496.00;5019038;27;97281;-85
2021/10/21 08:21:11;;;;;;;16.52;14.82;;;;;;;14.96;64.88;98488.78;5035036;27;97982;-84
2021/10/21 08:23:37;;;;;;;17.85;15.00;;;;;;;15.00;64.32;98481.44;5003316;27;101259;-85
2021/10/21 08:26:02;;;;;;;15.75;14.15;;;;;;;15.06;64.47;98471.22;5012276;28;97157;-85
2021/10/21 08:28:28;;;;;;;18.15;14.40;;;;;;;15.08;64.53;98476.38;5015576;27;97375;-84
2021/10/21 08:30:54;;;;;;;20.42;14.20;;;;;;;15.14;64.23;98492.56;5011307;27;101482;-84
2021/10/21 08:33:19;;;;;;;15.30;13.85;;;;;;;15.23;64.05;98501.56;5013169;28;100864;-85
2021/10/21 08:35:45;;;;;;;15.90;14.30;;;;;;;15.27;63.84;98489.78;5012503;27;97287;-84
2021/10/21 08:38:10;;;;;;;16.67;14.25;;;;;;;15.22;63.76;98477.91;4982676;28;97494;-84
2021/10/21 08:40:37;;;;;;;16.63;13.65;;;;;;;15.31;63.33;98501.78;4980625;28;101933;-85
2021/10/21 08:43:07;;;;;;;17.23;13.75;;;;;;;15.38;63.65;98488.88;4991750;28;101470;-86
2021/10/21 08:45:34;;;;;;;15.30;13.80;;;;;;;15.42;63.54;98470.94;4995058;28;96799;-85
2021/10/21 08:48:03;;;;;;;18.85;14.73;;;;;;;15.46;63.65;98438.84;4994013;28;96923;-84
2021/10/21 08:50:32;;;;;;;15.80;14.30;;;;;;;15.47;63.49;98406.16;4998231;28;100002;-85
2021/10/21 08:52:58;;;;;;;15.60;12.95;;;;;;;15.47;63.70;98437.88;4997009;28;98099;-84
2021/10/21 08:55:24;;;;;;;15.85;13.57;;;;;;;15.56;63.82;98442.41;4981037;28;97159;-85
2021/10/21 08:57:49;;;;;;;18.45;14.02;;;;;;;15.64;63.57;98417.94;4995606;28;97175;-85
2021/10/21 09:00:15;;;;;;;19.92;14.48;;;;;;;15.71;63.39;98419.16;4996737;28;101024;-85
2021/10/21 09:02:51;;;;;;;15.52;14.02;;;;;;;15.82;63.08;98432.31;4993255;28;98196;-84
2021/10/21 09:08:12;;;;;;;14.70;13.25;;;;;;;16.06;62.53;98458.47;5010898;28;97174;-85
2021/10/21 09:10:45;;;;;;;14.93;13.23;;;;;;;16.06;62.09;98445.22;4993663;28;101808;-85
2021/10/21 09:13:31;;;;;;;14.73;12.27;;;;;;;16.12;62.13;98438.56;4991329;28;100082;-84
2021/10/21 09:15:59;;;;;;;13.40;12.10;;;;;;;16.22;61.17;98444.72;4991494;28;97326;-84
2021/10/21 09:18:26;;;;;;;13.02;11.73;;;;;;;16.30;60.71;98421.06;4976853;27;97193;-84
2021/10/21 09:20:52;;;;;;;11.68;9.85;;;;;;;16.45;59.88;98403.00;4996031;28;101384;-85
2021/10/21 09:23:19;;;;;;;12.43;10.70;;;;;;;16.51;59.25;98401.63;4994295;28;97941;-85
2021/10/21 09:25:45;;;;;;;10.32;9.43;;;;;;;16.59;58.72;98398.28;5008035;28;97389;-86
2021/10/21 09:28:24;;;;;;;9.88;9.05;;;;;;;16.66;58.89;98397.59;4980547;28;97272;-85
2021/10/21 09:31:17;;;;;;;16.83;9.88;;;;;;;16.75;58.69;98419.78;4978452;28;101383;-84
2021/10/21 09:33:54;;;;;;;9.88;8.90;;;;;;;16.71;58.78;98394.53;4997029;28;101167;-86
2021/10/21 09:36:21;;;;;;;11.48;9.25;;;;;;;16.72;58.52;98412.09;4995539;27;96963;-85
2021/10/21 09:38:51;;;;;;;11.45;8.85;;;;;;;16.74;58.86;98408.34;5018035;27;96807;-86
2021/10/21 09:41:18;;;;;;;10.43;9.40;;;;;;;16.81;58.54;98410.47;5017688;27;101403;-86
2021/10/21 09:43:44;;;;;;;17.40;10.00;;;;;;;16.76;58.81;98416.19;5010690;28;97214;-86
2021/10/21 09:46:32;;;;;;;10.32;9.15;;;;;;;16.83;58.91;98406.72;4997928;27;97236;-86
2021/10/21 09:49:34;;;;;;;9.07;8.15;;;;;;;16.99;57.99;98419.44;5023914;28;97280;-86
2021/10/21 09:52:04;;;;;;;9.05;8.32;;;;;;;17.13;56.77;98408.41;5000013;27;101603;-85
2021/10/21 09:54:30;;;;;;;9.57;8.57;;;;;;;17.28;56.91;98405.31;5014649;27;98525;-86
2021/10/21 09:57:00;;;;;;;10.77;7.65;;;;;;;18.45;53.41;98411.97;5018604;27;97068;-84
2021/10/21 09:59:39;;;;;;;7.88;7.05;;;;;;;18.47;52.56;98401.16;5006204;27;96892;-85
2021/10/21 10:02:11;;;;;;;11.57;7.38;;;;;;;19.76;48.63;98380.41;5001236;27;101801;-86
2021/10/21 10:04:38;;;;;;;8.63;7.82;;;;;;;20.98;45.86;98366.69;5050708;27;98319;-86
2021/10/21 10:07:04;;;;;;;6.93;6.28;;;;;;;21.46;44.14;98360.50;4997388;27;97862;-86
2021/10/21 10:09:33;;;;;;;7.10;6.40;;;;;;;20.70;44.93;98356.31;5022014;27;97342;-86
2021/10/21 10:12:05;;;;;;;13.30;7.03;;;;;;;21.45;43.71;98372.22;5011651;27;101294;-86
2021/10/21 10:14:31;;;;;;;11.65;6.80;;;;;;;21.75;43.45;98369.81;4992742;27;101372;-87
2021/10/21 10:17:00;;;;;;;8.77;6.40;;;;;;;22.02;42.43;98378.41;5012786;27;96942;-84
2021/10/21 10:19:28;;;;;;;11.68;6.95;;;;;;;22.22;41.52;98354.81;4993437;27;97132;-86
2021/10/21 10:21:54;;;;;;;7.55;6.35;;;;;;;21.84;41.76;98365.28;5029741;27;97958;-86
2021/10/21 10:24:27;;;;;;;11.40;7.80;;;;;;;22.00;41.16;98365.25;5005087;27;102362;-86
2021/10/21 10:26:55;;;;;;;15.48;7.93;;;;;;;21.98;40.82;98348.53;5019186;27;97620;-87
2021/10/21 10:29:36;;;;;;;15.55;7.70;;;;;;;21.67;40.25;98324.44;5011025;27;97966;-86
2021/10/21 10:32:06;;;;;;;13.18;6.53;;;;;;;21.77;39.47;98327.75;5016799;27;100638;-87
2021/10/21 10:34:32;;;;;;;10.37;6.33;;;;;;;21.91;39.94;98342.25;5013365;27;98420;-85
2021/10/21 10:37:13;;;;;;;22.92;7.00;;;;;;;21.76;39.28;98339.44;5005313;27;98162;-85
2021/10/21 10:39:56;;;;;;;12.20;6.22;;;;;;;21.53;39.37;98342.00;5034931;27;97210;-86
2021/10/21 10:42:31;;;;;;;16.08;5.72;;;;;;;21.55;39.51;98350.66;5013159;27;101520;-86
2021/10/21 10:44:59;;;;;;;11.27;5.50;;;;;;;21.59;40.32;98365.34;5004832;27;101708;-86
2021/10/21 10:47:37;;;;;;;16.90;6.30;;;;;;;21.47;40.74;98377.38;5029544;27;97257;-86
2021/10/21 10:50:05;;;;;;;8.88;6.22;;;;;;;21.19;40.16;98411.53;5029345;27;97013;-87
2021/10/21 10:52:51;;;;;;;24.50;6.18;;;;;;;20.94;37.78;98378.66;4999334;27;101683;-86
2021/10/21 10:55:22;;;;;;;20.23;6.75;;;;;;;21.07;36.97;98378.19;5012730;28;101419;-86
2021/10/21 10:57:48;;;;;;;25.83;6.30;;;;;;;20.89;37.10;98383.69;5018111;27;97313;-87
2021/10/21 11:00:37;;;;;;;40.00;6.18;;;;;;;20.89;36.66;98386.34;5022378;27;97138;-88
2021/10/21 11:03:04;;;;;;;20.58;5.60;;;;;;;20.76;36.76;98392.97;5025922;27;98500;-91
2021/10/21 11:05:45;;;;;;;32.90;6.47;;;;;;;20.58;36.32;98390.44;5001083;27;101168;-87
2021/10/21 11:08:16;;;;;;;17.55;5.80;;;;;;;20.61;36.12;98410.59;5031311;27;96811;-88
2021/10/21 11:10:46;;;;;;;15.32;5.43;;;;;;;20.44;36.36;98419.50;5000359;27;96834;-87
2021/10/21 11:13:24;;;;;;;18.77;5.70;;;;;;;20.29;36.42;98435.28;5016485;27;101550;-89
2021/10/21 11:15:51;;;;;;;9.10;5.55;;;;;;;20.26;36.23;98427.59;5032649;27;98465;-87
2021/10/21 11:18:26;;;;;;;24.73;6.75;;;;;;;20.27;36.11;98422.09;5016440;27;97593;-88
2021/10/21 11:20:51;;;;;;;19.83;6.47;;;;;;;20.23;36.43;98418.09;4995298;28;96864;-88